createdAt,value
2018-07-21T00:00:27.141Z,994.68
2018-07-21T00:01:22.627Z,994.62
2018-07-21T00:02:21.406Z,994.6
2018-07-21T00:03:25.123Z,994.65
2018-07-21T00:04:24.748Z,994.68
2018-07-21T00:05:21.607Z,994.71
2018-07-21T00:06:26.888Z,994.71
2018-07-21T00:07:24.576Z,994.73
2018-07-21T00:08:41.818Z,994.71
2018-07-21T00:09:36.593Z,994.66
2018-07-21T00:10:39.672Z,994.71
2018-07-21T00:11:40.298Z,994.79
2018-07-21T00:12:42.760Z,994.74
2018-07-21T00:13:41.683Z,994.84
2018-07-21T00:14:38.192Z,994.83
2018-07-21T00:15:42.055Z,994.93
2018-07-21T00:16:45.928Z,994.83
2018-07-21T00:17:42.310Z,994.93
2018-07-21T00:18:46.561Z,994.95
2018-07-21T00:19:42.925Z,994.95
2018-07-21T00:20:47.241Z,994.93
2018-07-21T00:21:42.759Z,994.98
2018-07-21T00:22:40.714Z,994.96
2018-07-21T00:23:42.999Z,994.98
2018-07-21T00:24:44.236Z,995.02
2018-07-21T00:25:44.039Z,995.07
2018-07-21T00:26:44.905Z,995.1
2018-07-21T00:28:00.710Z,995.05
2018-07-21T00:29:00.402Z,995.13
2018-07-21T00:30:03.132Z,995.01
2018-07-21T00:31:07.132Z,994.98
2018-07-21T00:32:22.272Z,995.02
2018-07-21T00:33:27.487Z,995.02
2018-07-21T00:34:23.970Z,995.02
2018-07-21T00:35:26.854Z,994.95
2018-07-21T00:36:27.408Z,994.91
2018-07-21T00:37:29.042Z,994.93
2018-07-21T00:38:42.527Z,994.88
2018-07-21T00:39:33.931Z,994.89
2018-07-21T00:40:34.246Z,994.87
2018-07-21T00:41:32.103Z,994.8
2018-07-21T00:42:31.058Z,994.74
2018-07-21T00:43:31.063Z,994.73
2018-07-21T00:44:28.849Z,994.77
2018-07-21T00:45:23.230Z,994.59
2018-07-21T00:46:23.459Z,994.66
2018-07-21T00:47:22.005Z,994.62
2018-07-21T00:48:25.645Z,994.57
2018-07-21T00:49:39.456Z,994.54
2018-07-21T00:50:51.670Z,994.5
2018-07-21T00:51:50.635Z,994.53
2018-07-21T00:52:53.664Z,994.59
2018-07-21T00:53:59.762Z,994.56
2018-07-21T00:55:02.493Z,994.53
2018-07-21T00:55:58.506Z,994.57
2018-07-21T00:57:01.418Z,994.48
2018-07-21T00:57:16.857Z,994.35
2018-07-21T00:58:13.951Z,994.5
2018-07-21T00:59:15.097Z,994.44
2018-07-21T01:00:12.294Z,994.39
2018-07-21T01:01:11.740Z,994.45
2018-07-21T01:02:15.626Z,994.41
2018-07-21T01:03:12.998Z,994.38
2018-07-21T01:04:24.642Z,994.3
2018-07-21T01:05:20.141Z,994.35
2018-07-21T01:06:26.754Z,994.41
2018-07-21T01:07:24.780Z,994.35
2018-07-21T01:08:24.470Z,994.32
2018-07-21T01:09:30.108Z,994.29
2018-07-21T01:10:27.993Z,994.3
2018-07-21T01:11:32.206Z,994.39
2018-07-21T01:12:36.789Z,994.35
2018-07-21T01:13:35.436Z,994.32
2018-07-21T01:14:36.165Z,994.38
2018-07-21T01:15:34.733Z,994.29
2018-07-21T01:16:51.819Z,994.24
2018-07-21T01:17:47.360Z,994.26
2018-07-21T01:18:44.853Z,994.23
2018-07-21T01:19:45.490Z,994.21
2018-07-21T01:20:40.455Z,994.3
2018-07-21T01:21:45.017Z,994.27
2018-07-21T01:22:47.525Z,994.23
2018-07-21T01:23:44.846Z,994.3
2018-07-21T01:24:47.866Z,994.3
2018-07-21T01:25:45.613Z,994.39
2018-07-21T01:26:49.685Z,994.47
2018-07-21T01:27:53.709Z,994.45
2018-07-21T01:28:51.357Z,994.38
2018-07-21T01:30:07.060Z,994.45
2018-07-21T01:30:59.717Z,994.5
2018-07-21T01:32:00.242Z,994.45
2018-07-21T01:33:07.428Z,994.51
2018-07-21T01:34:19.167Z,994.45
2018-07-21T01:35:18.314Z,994.53
2018-07-21T01:36:14.508Z,994.44
2018-07-21T01:37:15.878Z,994.42
2018-07-21T01:38:15.459Z,994.54
2018-07-21T01:39:15.509Z,994.56
2018-07-21T01:40:15.200Z,994.43
2018-07-21T01:41:26.272Z,994.47
2018-07-21T01:42:23.961Z,994.43
2018-07-21T01:43:22.592Z,994.5
2018-07-21T01:44:18.811Z,994.4
2018-07-21T01:45:16.913Z,994.38
2018-07-21T01:46:17.770Z,994.4
2018-07-21T01:47:18.331Z,994.45
2018-07-21T01:48:14.691Z,994.47
2018-07-21T01:49:22.966Z,994.4
2018-07-21T01:50:20.699Z,994.38
2018-07-21T01:51:19.032Z,994.37
2018-07-21T01:52:26.058Z,994.38
2018-07-21T01:53:26.475Z,994.4
2018-07-21T01:54:31.462Z,994.4
2018-07-21T01:55:44.526Z,994.32
2018-07-21T01:56:39.952Z,994.32
2018-07-21T01:57:38.530Z,994.32
2018-07-21T01:58:36.340Z,994.38
2018-07-21T01:59:40.312Z,994.34
2018-07-21T02:00:49.757Z,994.41
2018-07-21T02:01:52.617Z,994.37
2018-07-21T02:02:53.790Z,994.4
2018-07-21T02:03:49.362Z,994.48
2018-07-21T02:04:56.291Z,994.44
2018-07-21T02:05:54.780Z,994.4
2018-07-21T02:07:05.140Z,994.46
2018-07-21T02:08:17.321Z,994.41
2018-07-21T02:09:17.171Z,994.47
2018-07-21T02:10:15.262Z,994.47
2018-07-21T02:11:13.929Z,994.5
2018-07-21T02:12:12.844Z,994.43
2018-07-21T02:13:12.324Z,994.47
2018-07-21T02:14:16.757Z,994.48
2018-07-21T02:15:19.957Z,994.46
2018-07-21T02:16:18.826Z,994.48
2018-07-21T02:17:16.696Z,994.47
2018-07-21T02:18:12.896Z,994.5
2018-07-21T02:19:11.929Z,994.47
2018-07-21T02:20:26.393Z,994.47
2018-07-21T02:21:19.823Z,994.5
2018-07-21T02:22:24.512Z,994.4
2018-07-21T02:23:26.790Z,994.4
2018-07-21T02:24:24.827Z,994.44
2018-07-21T02:25:25.219Z,994.43
2018-07-21T02:26:22.336Z,994.31
2018-07-21T02:27:23.827Z,994.35
2018-07-21T02:28:22.662Z,994.41
2018-07-21T02:29:22.481Z,994.41
2018-07-21T02:30:23.407Z,994.41
2018-07-21T02:31:30.014Z,994.41
2018-07-21T02:32:30.827Z,994.38
2018-07-21T02:33:26.278Z,994.35
2018-07-21T02:34:23.962Z,994.28
2018-07-21T02:35:37.272Z,994.38
2018-07-21T02:36:31.171Z,994.35
2018-07-21T02:37:30.074Z,994.34
2018-07-21T02:38:28.747Z,994.34
2018-07-21T02:39:37.177Z,994.34
2018-07-21T02:40:35.009Z,994.35
2018-07-21T02:41:34.575Z,994.28
2018-07-21T02:42:35.041Z,994.28
2018-07-21T02:43:33.996Z,994.29
2018-07-21T02:44:35.879Z,994.22
2018-07-21T02:45:33.126Z,994.26
2018-07-21T02:46:40.201Z,994.26
2018-07-21T02:47:43.667Z,994.25
2018-07-21T02:48:57.106Z,994.23
2018-07-21T02:49:53.200Z,994.31
2018-07-21T02:50:57.893Z,994.28
2018-07-21T02:52:01.098Z,994.29
2018-07-21T02:52:59.821Z,994.25
2018-07-21T02:53:55.452Z,994.32
2018-07-21T02:54:53.331Z,994.26
2018-07-21T02:55:52.949Z,994.41
2018-07-21T02:56:53.117Z,994.31
2018-07-21T02:57:54.226Z,994.37
2018-07-21T02:58:50.826Z,994.29
2018-07-21T02:59:50.540Z,994.28
2018-07-21T03:01:07.134Z,994.16
2018-07-21T03:02:04.555Z,994.19
2018-07-21T03:03:03.170Z,994.19
2018-07-21T03:03:58.875Z,994.25
2018-07-21T03:04:56.443Z,994.2
2018-07-21T03:05:55.527Z,994.2
2018-07-21T03:06:59.161Z,994.23
2018-07-21T03:07:58.422Z,994.26
2018-07-21T03:09:00.445Z,994.28
2018-07-21T03:09:59.074Z,994.28
2018-07-21T03:10:58.055Z,994.23
2018-07-21T03:12:03.341Z,994.19
2018-07-21T03:13:02.167Z,994.22
2018-07-21T03:14:00.092Z,994.23
2018-07-21T03:15:02.814Z,994.22
2018-07-21T03:16:03.208Z,994.14
2018-07-21T03:17:00.611Z,994.25
2018-07-21T03:18:12.356Z,994.23
2018-07-21T03:19:07.073Z,994.26
2018-07-21T03:20:07.841Z,994.2
2018-07-21T03:21:05.501Z,994.28
2018-07-21T03:22:03.012Z,994.19
2018-07-21T03:23:05.228Z,994.22
2018-07-21T03:23:58.778Z,994.23
2018-07-21T03:25:01.384Z,994.26
2018-07-21T03:25:59.872Z,994.22
2018-07-21T03:26:59.389Z,994.23
2018-07-21T03:28:14.024Z,994.16
2018-07-21T03:29:13.937Z,994.19
2018-07-21T03:30:12.451Z,994.17
2018-07-21T03:31:10.291Z,994.28
2018-07-21T03:32:12.280Z,994.17
2018-07-21T03:33:10.953Z,994.14
2018-07-21T03:34:08.895Z,994.13
2018-07-21T03:35:07.108Z,994.23
2018-07-21T03:36:11.010Z,994.07
2018-07-21T03:37:07.620Z,994.14
2018-07-21T03:38:19.417Z,994.07
2018-07-21T03:39:11.070Z,994.16
2018-07-21T03:40:12.501Z,994.07
2018-07-21T03:41:09.839Z,994.08
2018-07-21T03:42:12.057Z,994.13
2018-07-21T03:43:10.079Z,994.05
2018-07-21T03:44:12.931Z,994.14
2018-07-21T03:45:07.622Z,994.01
2018-07-21T03:46:09.927Z,994.08
2018-07-21T03:47:05.319Z,994.07
2018-07-21T03:48:26.558Z,994.1
2018-07-21T03:49:22.202Z,994.11
2018-07-21T03:50:21.192Z,994.08
2018-07-21T03:51:20.364Z,994.13
2018-07-21T03:52:28.525Z,994.05
2018-07-21T03:53:21.983Z,994.08
2018-07-21T03:54:25.788Z,994.14
2018-07-21T03:55:22.198Z,994.14
2018-07-21T03:56:22.529Z,994.07
2018-07-21T03:57:24.913Z,994.16
2018-07-21T03:58:22.686Z,994.1
2018-07-21T03:59:34.821Z,994.16
2018-07-21T04:00:31.206Z,994.22
2018-07-21T04:01:33.014Z,994.22
2018-07-21T04:02:44.343Z,994.28
2018-07-21T04:03:51.048Z,994.29
2018-07-21T04:04:46.037Z,994.26
2018-07-21T04:05:47.322Z,994.22
2018-07-21T04:06:50.458Z,994.25
2018-07-21T04:07:48.390Z,994.17
2018-07-21T04:08:47.754Z,994.19
2018-07-21T04:09:47.043Z,994.2
2018-07-21T04:10:53.284Z,994.14
2018-07-21T04:11:47.998Z,994.11
2018-07-21T04:13:01.332Z,994.09
2018-07-21T04:14:00.894Z,994
2018-07-21T04:15:04.151Z,994.07
2018-07-21T04:16:02.696Z,994.07
2018-07-21T04:17:03.140Z,994.04
2018-07-21T04:18:02.004Z,994.03
2018-07-21T04:19:00.699Z,994.07
2018-07-21T04:20:00.786Z,994.06
2018-07-21T04:21:00.511Z,994.1
2018-07-21T04:22:09.491Z,994.19
2018-07-21T04:23:06.576Z,994.13
2018-07-21T04:24:05.185Z,994.17
2018-07-21T04:25:04.225Z,994.23
2018-07-21T04:26:09.439Z,994.15
2018-07-21T04:27:21.555Z,994.25
2018-07-21T04:28:16.498Z,994.28
2018-07-21T04:29:25.471Z,994.18
2018-07-21T04:30:28.503Z,994.31
2018-07-21T04:31:29.845Z,994.28
2018-07-21T04:32:31.213Z,994.28
2018-07-21T04:33:31.697Z,994.22
2018-07-21T04:34:28.041Z,994.25
2018-07-21T04:35:27.114Z,994.22
2018-07-21T04:36:33.413Z,994.29
2018-07-21T04:37:28.354Z,994.35
2018-07-21T04:38:26.501Z,994.29
2018-07-21T04:39:24.554Z,994.32
2018-07-21T04:40:31.713Z,994.37
2018-07-21T04:41:31.546Z,994.29
2018-07-21T04:42:35.938Z,994.37
2018-07-21T04:43:33.867Z,994.37
2018-07-21T04:44:32.640Z,994.29
2018-07-21T04:45:31.170Z,994.34
2018-07-21T04:46:31.145Z,994.31
2018-07-21T04:47:28.888Z,994.34
2018-07-21T04:48:31.059Z,994.4
2018-07-21T04:49:28.810Z,994.37
2018-07-21T04:50:30.743Z,994.4
2018-07-21T04:51:34.797Z,994.49
2018-07-21T04:52:39.140Z,994.52
2018-07-21T04:53:33.766Z,994.49
2018-07-21T04:54:36.024Z,994.52
2018-07-21T04:55:48.187Z,994.55
2018-07-21T04:56:45.315Z,994.59
2018-07-21T04:57:43.158Z,994.55
2018-07-21T04:58:46.927Z,994.53
2018-07-21T04:59:47.043Z,994.56
2018-07-21T05:00:48.698Z,994.55
2018-07-21T05:01:49.970Z,994.56
2018-07-21T05:02:46.564Z,994.55
2018-07-21T05:03:54.988Z,994.56
2018-07-21T05:04:50.390Z,994.5
2018-07-21T05:06:00.220Z,994.49
2018-07-21T05:06:56.564Z,994.59
2018-07-21T05:08:22.911Z,994.53
2018-07-21T05:09:19.706Z,994.52
2018-07-21T05:10:21.122Z,994.55
2018-07-21T05:11:18.962Z,994.58
2018-07-21T05:12:23.343Z,994.53
2018-07-21T05:13:22.321Z,994.5
2018-07-21T05:14:20.854Z,994.5
2018-07-21T05:15:24.252Z,994.56
2018-07-21T05:16:21.816Z,994.58
2018-07-21T05:17:19.912Z,994.49
2018-07-21T05:18:17.191Z,994.56
2018-07-21T05:19:15.464Z,994.53
2018-07-21T05:20:26.923Z,994.49
2018-07-21T05:21:24.432Z,994.46
2018-07-21T05:22:23.181Z,994.51
2018-07-21T05:23:18.742Z,994.52
2018-07-21T05:24:23.035Z,994.55
2018-07-21T05:25:21.765Z,994.46
2018-07-21T05:26:31.537Z,994.6
2018-07-21T05:27:30.796Z,994.63
2018-07-21T05:28:31.694Z,994.58
2018-07-21T05:29:29.788Z,994.55
2018-07-21T05:30:27.486Z,994.58
2018-07-21T05:31:27.401Z,994.51
2018-07-21T05:32:36.616Z,994.54
2018-07-21T05:33:36.557Z,994.52
2018-07-21T05:34:36.618Z,994.49
2018-07-21T05:35:34.424Z,994.49
2018-07-21T05:36:35.474Z,994.49
2018-07-21T05:37:32.084Z,994.55
2018-07-21T05:38:31.146Z,994.55
2018-07-21T05:39:28.770Z,994.57
2018-07-21T05:40:28.730Z,994.58
2018-07-21T05:41:31.981Z,994.54
2018-07-21T05:42:27.636Z,994.58
2018-07-21T05:43:28.857Z,994.51
2018-07-21T05:44:41.521Z,994.63
2018-07-21T05:45:36.044Z,994.6
2018-07-21T05:46:33.608Z,994.6
2018-07-21T05:47:32.420Z,994.61
2018-07-21T05:48:33.623Z,994.63
2018-07-21T05:49:31.160Z,994.71
2018-07-21T05:50:26.655Z,994.69
2018-07-21T05:51:29.199Z,994.69
2018-07-21T05:52:27.643Z,994.67
2018-07-21T05:53:28.071Z,994.71
2018-07-21T05:54:26.221Z,994.69
2018-07-21T05:55:40.156Z,994.66
2018-07-21T05:56:33.588Z,994.74
2018-07-21T05:57:37.691Z,994.75
2018-07-21T05:58:35.617Z,994.71
2018-07-21T05:59:34.264Z,994.78
2018-07-21T06:00:36.590Z,994.8
2018-07-21T06:01:37.280Z,994.67
2018-07-21T06:02:34.110Z,994.72
2018-07-21T06:03:36.060Z,994.74
2018-07-21T06:04:30.747Z,994.75
2018-07-21T06:05:30.565Z,994.71
2018-07-21T06:06:31.916Z,994.72
2018-07-21T06:07:30.732Z,994.71
2018-07-21T06:08:31.345Z,994.77
2018-07-21T06:09:32.603Z,994.74
2018-07-21T06:10:36.525Z,994.75
2018-07-21T06:11:37.302Z,994.77
2018-07-21T06:12:40.239Z,994.78
2018-07-21T06:13:42.689Z,994.75
2018-07-21T06:14:40.143Z,994.83
2018-07-21T06:15:41.531Z,994.86
2018-07-21T06:16:43.483Z,994.89
2018-07-21T06:17:44.510Z,994.87
2018-07-21T06:18:39.967Z,994.87
2018-07-21T06:19:37.996Z,994.84
2018-07-21T06:20:36.834Z,994.84
2018-07-21T06:21:37.790Z,994.86
2018-07-21T06:22:40.684Z,994.87
2018-07-21T06:23:53.394Z,994.94
2018-07-21T06:24:49.012Z,994.99
2018-07-21T06:25:47.118Z,994.9
2018-07-21T06:26:45.214Z,994.88
2018-07-21T06:27:46.602Z,994.93
2018-07-21T06:29:00.826Z,994.88
2018-07-21T06:29:59.354Z,994.91
2018-07-21T06:31:01.939Z,994.97
2018-07-21T06:32:00.529Z,994.9
2018-07-21T06:32:56.916Z,994.94
2018-07-21T06:34:09.207Z,994.93
2018-07-21T06:35:06.681Z,994.99
2018-07-21T06:36:17.209Z,994.94
2018-07-21T06:37:16.099Z,994.88
2018-07-21T06:38:17.733Z,994.91
2018-07-21T06:39:16.378Z,995
2018-07-21T06:40:14.191Z,994.99
2018-07-21T06:41:12.072Z,994.96
2018-07-21T06:42:10.882Z,994.99
2018-07-21T06:43:08.825Z,995.02
2018-07-21T06:44:06.771Z,995.09
2018-07-21T06:45:19.841Z,995.17
2018-07-21T06:46:24.491Z,995.05
2018-07-21T06:47:21.900Z,995.14
2018-07-21T06:48:22.578Z,995
2018-07-21T06:49:22.747Z,995
2018-07-21T06:50:23.947Z,995.11
2018-07-21T06:51:25.928Z,995.09
2018-07-21T06:52:21.789Z,995.15
2018-07-21T06:53:33.097Z,995.09
2018-07-21T06:54:33.265Z,995.2
2018-07-21T06:55:31.804Z,995.09
2018-07-21T06:56:29.631Z,995.18
2018-07-21T06:57:28.102Z,995.06
2018-07-21T06:58:28.112Z,995.18
2018-07-21T06:59:29.114Z,995.23
2018-07-21T07:00:27.036Z,995.26
2018-07-21T07:01:27.425Z,995.1
2018-07-21T07:02:22.716Z,995.17
2018-07-21T07:03:24.234Z,995.14
2018-07-21T07:04:27.503Z,995.26
2018-07-21T07:05:21.542Z,995.17
2018-07-21T07:06:39.024Z,995.17
2018-07-21T07:07:25.535Z,995.11
2018-07-21T07:08:26.770Z,995.17
2018-07-21T07:09:28.428Z,995.17
2018-07-21T07:10:23.212Z,995.29
2018-07-21T07:11:27.469Z,995.27
2018-07-21T07:12:27.532Z,995.24
2018-07-21T07:13:27.468Z,995.3
2018-07-21T07:14:23.741Z,995.27
2018-07-21T07:15:28.824Z,995.29
2018-07-21T07:16:33.769Z,995.36
2018-07-21T07:17:37.509Z,995.29
2018-07-21T07:18:33.702Z,995.28
2018-07-21T07:19:47.171Z,995.33
2018-07-21T07:20:45.491Z,995.32
2018-07-21T07:21:43.536Z,995.38
2018-07-21T07:22:49.471Z,995.26
2018-07-21T07:23:46.937Z,995.31
2018-07-21T07:24:45.481Z,995.33
2018-07-21T07:25:43.267Z,995.29
2018-07-21T07:26:41.434Z,995.31
2018-07-21T07:27:47.590Z,995.37
2018-07-21T07:28:48.938Z,995.32
2018-07-21T07:29:47.490Z,995.29
2018-07-21T07:31:01.657Z,995.31
2018-07-21T07:31:57.995Z,995.29
2018-07-21T07:32:58.636Z,995.31
2018-07-21T07:33:57.370Z,995.22
2018-07-21T07:34:55.544Z,995.23
2018-07-21T07:35:50.768Z,995.26
2018-07-21T07:36:54.036Z,995.23
2018-07-21T07:37:48.444Z,995.23
2018-07-21T07:38:46.547Z,995.2
2018-07-21T07:39:48.816Z,995.31
2018-07-21T07:40:43.940Z,995.2
2018-07-21T07:41:56.656Z,995.34
2018-07-21T07:42:51.490Z,995.31
2018-07-21T07:43:55.600Z,995.31
2018-07-21T07:44:53.795Z,995.28
2018-07-21T07:45:21.127Z,995.31
2018-07-21T07:46:17.776Z,995.31
2018-07-21T07:47:17.870Z,995.38
2018-07-21T07:48:20.935Z,995.26
2018-07-21T07:49:16.655Z,995.23
2018-07-21T07:50:18.733Z,995.28
2018-07-21T07:51:16.554Z,995.28
2018-07-21T07:52:30.584Z,995.25
2018-07-21T07:53:24.492Z,995.29
2018-07-21T07:54:28.953Z,995.28
2018-07-21T07:55:27.750Z,995.29
2018-07-21T07:56:23.965Z,995.23
2018-07-21T07:57:21.934Z,995.23
2018-07-21T07:58:26.436Z,995.31
2018-07-21T07:59:29.095Z,995.35
2018-07-21T08:00:29.205Z,995.29
2018-07-21T08:01:26.379Z,995.34
2018-07-21T08:02:23.824Z,995.37
2018-07-21T08:03:26.557Z,995.29
2018-07-21T08:04:19.366Z,995.26
2018-07-21T08:05:35.474Z,995.31
2018-07-21T08:06:36.285Z,995.35
2018-07-21T08:07:38.259Z,995.28
2018-07-21T08:08:33.515Z,995.23
2018-07-21T08:09:34.853Z,995.26
2018-07-21T08:10:32.494Z,995.29
2018-07-21T08:11:30.387Z,995.24
2018-07-21T08:12:30.273Z,995.26
2018-07-21T08:13:39.076Z,995.17
2018-07-21T08:14:41.283Z,995.24
2018-07-21T08:15:45.810Z,995.26
2018-07-21T08:16:40.843Z,995.24
2018-07-21T08:17:43.507Z,995.27
2018-07-21T08:18:42.313Z,995.29
2018-07-21T08:19:39.580Z,995.21
2018-07-21T08:20:54.071Z,995.23
2018-07-21T08:21:56.908Z,995.17
2018-07-21T08:22:54.796Z,995.23
2018-07-21T08:23:53.892Z,995.21
2018-07-21T08:24:51.754Z,995.2
2018-07-21T08:25:52.587Z,995.2
2018-07-21T08:26:51.612Z,995.17
2018-07-21T08:27:51.213Z,995.2
2018-07-21T08:28:57.637Z,995.2
2018-07-21T08:29:56.512Z,995.12
2018-07-21T08:30:57.839Z,995.12
2018-07-21T08:32:06.241Z,995.17
2018-07-21T08:33:07.806Z,995.09
2018-07-21T08:34:13.272Z,995.09
2018-07-21T08:35:28.180Z,995
2018-07-21T08:36:27.533Z,995.05
2018-07-21T08:37:25.714Z,995
2018-07-21T08:38:28.275Z,995.06
2018-07-21T08:39:23.590Z,995.03
2018-07-21T08:40:22.466Z,995.08
2018-07-21T08:41:21.431Z,995.05
2018-07-21T08:42:20.135Z,994.97
2018-07-21T08:43:23.005Z,994.96
2018-07-21T08:44:22.378Z,995.06
2018-07-21T08:45:21.142Z,995.09
2018-07-21T08:46:18.589Z,995.05
2018-07-21T08:47:40.472Z,995.1
2018-07-21T08:48:33.399Z,995.07
2018-07-21T08:49:34.564Z,995.03
2018-07-21T08:50:34.440Z,994.95
2018-07-21T08:51:34.312Z,994.97
2018-07-21T08:52:32.790Z,995
2018-07-21T08:53:30.444Z,994.97
2018-07-21T08:54:29.633Z,994.97
2018-07-21T08:55:30.821Z,995.04
2018-07-21T08:56:34.469Z,994.97
2018-07-21T08:57:35.936Z,995.07
2018-07-21T08:58:31.020Z,995.01
2018-07-21T08:59:29.219Z,995
2018-07-21T09:00:41.626Z,994.94
2018-07-21T09:01:36.448Z,994.98
2018-07-21T09:02:35.638Z,995.06
2018-07-21T09:03:32.977Z,995.04
2018-07-21T09:04:33.654Z,995.04
2018-07-21T09:05:32.869Z,995.07
2018-07-21T09:06:30.515Z,994.85
2018-07-21T09:07:28.219Z,994.98
2018-07-21T09:08:26.255Z,995.01
2018-07-21T09:09:25.846Z,994.97
2018-07-21T09:10:25.748Z,994.97
2018-07-21T09:11:37.273Z,994.97
2018-07-21T09:12:39.856Z,994.88
2018-07-21T09:13:42.250Z,994.95
2018-07-21T09:14:43.871Z,994.94
2018-07-21T09:15:42.712Z,994.97
2018-07-21T09:16:38.943Z,994.95
2018-07-21T09:17:39.047Z,994.98
2018-07-21T09:18:41.650Z,994.97
2018-07-21T09:19:36.653Z,994.94
2018-07-21T09:20:44.043Z,994.92
2018-07-21T09:21:45.969Z,994.85
2018-07-21T09:22:42.563Z,994.87
2018-07-21T09:23:40.496Z,994.92
2018-07-21T09:24:42.478Z,995.01
2018-07-21T09:25:40.739Z,994.89
2018-07-21T09:26:42.778Z,994.93
2018-07-21T09:27:44.736Z,994.89
2018-07-21T09:28:41.444Z,994.95
2018-07-21T09:29:51.505Z,994.9
2018-07-21T09:30:49.603Z,994.99
2018-07-21T09:31:45.939Z,994.89
2018-07-21T09:32:46.332Z,994.87
2018-07-21T09:33:43.612Z,994.86
2018-07-21T09:34:45.961Z,994.95
2018-07-21T09:35:45.254Z,994.89
2018-07-21T09:36:45.901Z,994.89
2018-07-21T09:37:48.186Z,994.84
2018-07-21T09:38:46.056Z,994.89
2018-07-21T09:39:47.442Z,994.98
2018-07-21T09:40:45.053Z,994.99
2018-07-21T09:41:43.040Z,994.93
2018-07-21T09:42:44.449Z,994.96
2018-07-21T09:43:45.933Z,994.99
2018-07-21T09:44:45.705Z,994.98
2018-07-21T09:45:52.624Z,994.98
2018-07-21T09:46:53.038Z,994.96
2018-07-21T09:47:54.819Z,994.95
2018-07-21T09:48:59.347Z,995.08
2018-07-21T09:49:54.680Z,994.92
2018-07-21T09:50:52.447Z,994.93
2018-07-21T09:52:05.499Z,994.95
2018-07-21T09:53:00.279Z,994.95
2018-07-21T09:54:00.161Z,995.01
2018-07-21T09:54:59.676Z,994.95
2018-07-21T09:56:00.906Z,995.01
2018-07-21T09:56:58.738Z,995.02
2018-07-21T09:57:56.664Z,995.01
2018-07-21T09:58:54.019Z,995.06
2018-07-21T09:59:58.221Z,995.11
2018-07-21T10:01:00.487Z,995.06
2018-07-21T10:01:58.216Z,995.09
2018-07-21T10:02:53.588Z,995.01
2018-07-21T10:03:55.804Z,995.11
2018-07-21T10:04:54.359Z,995.11
2018-07-21T10:06:06.564Z,995.12
2018-07-21T10:07:08.235Z,995.06
2018-07-21T10:08:03.736Z,995.12
2018-07-21T10:09:03.824Z,995.15
2018-07-21T10:10:01.801Z,995.2
2018-07-21T10:10:59.518Z,995.17
2018-07-21T10:11:58.877Z,995.12
2018-07-21T10:12:59.442Z,995.15
2018-07-21T10:13:57.140Z,995.17
2018-07-21T10:15:00.242Z,995.18
2018-07-21T10:16:13.472Z,995.23
2018-07-21T10:17:08.620Z,995.11
2018-07-21T10:18:03.784Z,995.14
2018-07-21T10:19:10.823Z,995.15
2018-07-21T10:20:12.287Z,995.15
2018-07-21T10:21:10.915Z,995.14
2018-07-21T10:22:06.542Z,995.11
2018-07-21T10:23:09.599Z,995.11
2018-07-21T10:24:08.020Z,995.05
2018-07-21T10:25:06.152Z,995.14
2018-07-21T10:26:08.478Z,995.09
2018-07-21T10:27:11.005Z,995
2018-07-21T10:28:22.988Z,995.06
2018-07-21T10:29:19.779Z,995.09
2018-07-21T10:30:18.614Z,995.11
2018-07-21T10:31:19.231Z,995.11
2018-07-21T10:32:15.082Z,995.12
2018-07-21T10:33:19.489Z,995.11
2018-07-21T10:34:15.693Z,995.2
2018-07-21T10:35:17.023Z,995.12
2018-07-21T10:36:17.943Z,995.06
2018-07-21T10:37:16.018Z,995.03
2018-07-21T10:38:15.381Z,995.02
2018-07-21T10:39:18.239Z,995.11
2018-07-21T10:40:19.190Z,995.08
2018-07-21T10:41:21.848Z,995
2018-07-21T10:42:37.070Z,995.12
2018-07-21T10:43:29.194Z,995.14
2018-07-21T10:44:29.954Z,995.12
2018-07-21T10:45:25.035Z,995.14
2018-07-21T10:46:27.699Z,995.17
2018-07-21T10:47:22.839Z,995.12
2018-07-21T10:48:25.183Z,995.03
2018-07-21T10:49:23.228Z,995.09
2018-07-21T10:50:22.138Z,995.14
2018-07-21T10:51:25.072Z,995.08
2018-07-21T10:52:21.447Z,995.03
2018-07-21T10:53:34.648Z,995.05
2018-07-21T10:54:32.980Z,995.15
2018-07-21T10:55:31.028Z,995.12
2018-07-21T10:56:29.862Z,995.17
2018-07-21T10:57:27.493Z,995.15
2018-07-21T10:58:22.945Z,995.11
2018-07-21T10:59:25.622Z,995.17
2018-07-21T11:00:20.919Z,995.17
2018-07-21T11:01:22.381Z,995.14
2018-07-21T11:02:18.725Z,995.09
2018-07-21T11:03:26.041Z,995.09
2018-07-21T11:04:27.807Z,995.08
2018-07-21T11:05:26.528Z,995.15
2018-07-21T11:06:28.832Z,995.08
2018-07-21T11:07:33.631Z,995.12
2018-07-21T11:08:33.626Z,995.09
2018-07-21T11:09:32.437Z,995.09
2018-07-21T11:10:30.404Z,995.05
2018-07-21T11:11:36.364Z,995.05
2018-07-21T11:12:43.263Z,995
2018-07-21T11:13:42.008Z,995.05
2018-07-21T11:14:52.183Z,995.03
2018-07-21T11:15:49.754Z,995.09
2018-07-21T11:16:48.426Z,995.12
2018-07-21T11:17:46.536Z,995.05
2018-07-21T11:18:44.520Z,995.02
2018-07-21T11:19:45.875Z,995.05
2018-07-21T11:20:48.528Z,994.94
2018-07-21T11:21:47.163Z,995.02
2018-07-21T11:22:42.591Z,995.03
2018-07-21T11:23:45.578Z,995.05
2018-07-21T11:24:45.393Z,994.97
2018-07-21T11:26:00.190Z,994.99
2018-07-21T11:26:55.819Z,995.05
2018-07-21T11:27:58.963Z,995
2018-07-21T11:29:02.658Z,995.08
2018-07-21T11:30:05.110Z,994.96
2018-07-21T11:31:07.244Z,994.94
2018-07-21T11:32:07.161Z,995
2018-07-21T11:33:05.051Z,994.96
2018-07-21T11:34:20.955Z,995
2018-07-21T11:35:16.069Z,994.94
2018-07-21T11:36:12.829Z,994.85
2018-07-21T11:37:11.347Z,994.96
2018-07-21T11:38:20.082Z,995.05
2018-07-21T11:39:16.370Z,994.93
2018-07-21T11:40:20.849Z,994.96
2018-07-21T11:41:16.065Z,995
2018-07-21T11:42:18.313Z,995
2018-07-21T11:43:13.890Z,995.02
2018-07-21T11:44:23.329Z,995
2018-07-21T11:45:38.496Z,994.97
2018-07-21T11:46:39.367Z,995.05
2018-07-21T11:47:38.398Z,994.94
2018-07-21T11:48:38.936Z,995.02
2018-07-21T11:49:36.181Z,995.09
2018-07-21T11:50:37.475Z,995.02
2018-07-21T11:51:37.267Z,995.04
2018-07-21T11:52:35.334Z,995.06
2018-07-21T11:53:33.819Z,995.03
2018-07-21T11:54:46.967Z,995.01
2018-07-21T11:55:45.235Z,995.06
2018-07-21T11:56:45.359Z,995
2018-07-21T11:57:40.754Z,995.04
2018-07-21T11:58:38.284Z,995.04
2018-07-21T11:59:39.840Z,995.03
2018-07-21T12:00:36.300Z,995.1
2018-07-21T12:01:38.470Z,995.03
2018-07-21T12:02:49.001Z,995.03
2018-07-21T12:03:46.518Z,995
2018-07-21T12:04:42.430Z,994.97
2018-07-21T12:05:54.528Z,995.06
2018-07-21T12:06:53.733Z,994.94
2018-07-21T12:07:52.673Z,995
2018-07-21T12:08:57.681Z,995.04
2018-07-21T12:09:55.400Z,995.01
2018-07-21T12:10:53.272Z,994.97
2018-07-21T12:11:48.826Z,994.98
2018-07-21T12:12:48.755Z,994.98
2018-07-21T12:13:49.529Z,995.04
2018-07-21T12:14:49.609Z,995.03
2018-07-21T12:15:49.280Z,995
2018-07-21T12:16:51.451Z,995.07
2018-07-21T12:17:47.948Z,995.04
2018-07-21T12:19:00.753Z,995.04
2018-07-21T12:19:57.843Z,995.03
2018-07-21T12:20:55.311Z,995
2018-07-21T12:21:58.044Z,995.01
2018-07-21T12:23:06.318Z,994.97
2018-07-21T12:24:05.340Z,994.98
2018-07-21T12:25:09.662Z,995.03
2018-07-21T12:26:09.324Z,995.1
2018-07-21T12:27:08.294Z,994.95
2018-07-21T12:28:03.781Z,994.98
2018-07-21T12:29:05.079Z,994.95
2018-07-21T12:30:04.497Z,994.92
2018-07-21T12:31:16.120Z,994.97
2018-07-21T12:32:16.272Z,994.94
2018-07-21T12:33:29.124Z,994.94
2018-07-21T12:34:25.410Z,994.92
2018-07-21T12:35:21.723Z,994.97
2018-07-21T12:36:27.330Z,995.03
2018-07-21T12:37:22.788Z,994.92
2018-07-21T12:38:26.838Z,995.03
2018-07-21T12:39:24.767Z,994.98
2018-07-21T12:40:20.391Z,994.92
2018-07-21T12:41:22.576Z,994.94
2018-07-21T12:42:18.911Z,994.95
2018-07-21T12:43:17.204Z,995